sensor_id;sensor_type;location;lat;lon;timestamp;P1;durP1;ratioP1;P2;durP2;ratioP2
11123;SDS011;5616;42.692;23.312;2024-01-16T00:00:02;17.48;;;10.10;;
11123;SDS011;5616;42.692;23.312;2024-01-16T00:02:28;18.67;;;10.43;;
11123;SDS011;5616;42.692;23.312;2024-01-16T00:04:53;18.67;;;10.30;;
11123;SDS011;5616;42.692;23.312;2024-01-16T00:07:19;17.00;;;9.30;;
11123;SDS011;5616;42.692;23.312;2024-01-16T00:09:44;16.73;;;8.73;;
11123;SDS011;5616;42.692;23.312;2024-01-16T00:12:10;21.13;;;9.68;;
11123;SDS011;5616;42.692;23.312;2024-01-16T00:14:36;15.88;;;10.05;;
11123;SDS011;5616;42.692;23.312;2024-01-16T00:17:02;15.98;;;9.50;;
11123;SDS011;5616;42.692;23.312;2024-01-16T00:19:28;16.48;;;9.73;;
11123;SDS011;5616;42.692;23.312;2024-01-16T00:21:53;17.77;;;9.95;;
11123;SDS011;5616;42.692;23.312;2024-01-16T00:24:19;14.57;;;8.82;;
11123;SDS011;5616;42.692;23.312;2024-01-16T00:26:44;16.83;;;9.43;;
11123;SDS011;5616;42.692;23.312;2024-01-16T00:29:11;19.70;;;10.35;;
11123;SDS011;5616;42.692;23.312;2024-01-16T00:31:37;17.77;;;9.75;;
11123;SDS011;5616;42.692;23.312;2024-01-16T00:34:04;15.63;;;9.68;;
11123;SDS011;5616;42.692;23.312;2024-01-16T00:36:29;15.07;;;10.23;;
11123;SDS011;5616;42.692;23.312;2024-01-16T00:38:56;16.15;;;9.75;;
11123;SDS011;5616;42.692;23.312;2024-01-16T00:41:21;17.10;;;10.02;;
11123;SDS011;5616;42.692;23.312;2024-01-16T00:43:47;16.02;;;8.77;;
11123;SDS011;5616;42.692;23.312;2024-01-16T00:46:12;16.02;;;9.30;;
11123;SDS011;5616;42.692;23.312;2024-01-16T00:48:38;14.43;;;8.32;;
11123;SDS011;5616;42.692;23.312;2024-01-16T00:51:04;14.43;;;8.23;;
11123;SDS011;5616;42.692;23.312;2024-01-16T00:53:29;14.90;;;8.48;;
11123;SDS011;5616;42.692;23.312;2024-01-16T00:55:55;16.40;;;9.90;;
11123;SDS011;5616;42.692;23.312;2024-01-16T00:58:23;14.93;;;9.07;;
11123;SDS011;5616;42.692;23.312;2024-01-16T01:00:49;16.98;;;10.15;;
11123;SDS011;5616;42.692;23.312;2024-01-16T01:03:14;17.05;;;9.95;;
11123;SDS011;5616;42.692;23.312;2024-01-16T01:05:40;13.40;;;8.73;;
11123;SDS011;5616;42.692;23.312;2024-01-16T01:08:06;13.77;;;8.95;;
11123;SDS011;5616;42.692;23.312;2024-01-16T01:10:31;16.65;;;9.57;;
11123;SDS011;5616;42.692;23.312;2024-01-16T01:12:57;12.82;;;8.93;;
11123;SDS011;5616;42.692;23.312;2024-01-16T01:15:22;15.88;;;9.20;;
11123;SDS011;5616;42.692;23.312;2024-01-16T01:17:48;13.10;;;8.88;;
11123;SDS011;5616;42.692;23.312;2024-01-16T01:20:14;13.20;;;8.68;;
11123;SDS011;5616;42.692;23.312;2024-01-16T01:22:41;14.60;;;8.23;;
11123;SDS011;5616;42.692;23.312;2024-01-16T01:25:06;13.25;;;9.02;;
11123;SDS011;5616;42.692;23.312;2024-01-16T01:27:33;11.95;;;8.07;;
11123;SDS011;5616;42.692;23.312;2024-01-16T01:29:58;13.02;;;8.18;;
11123;SDS011;5616;42.692;23.312;2024-01-16T01:32:23;15.05;;;8.13;;
11123;SDS011;5616;42.692;23.312;2024-01-16T01:34:49;13.60;;;8.73;;
11123;SDS011;5616;42.692;23.312;2024-01-16T01:37:14;14.82;;;8.00;;
11123;SDS011;5616;42.692;23.312;2024-01-16T01:39:40;13.20;;;7.63;;
11123;SDS011;5616;42.692;23.312;2024-01-16T01:42:06;12.93;;;7.57;;
11123;SDS011;5616;42.692;23.312;2024-01-16T01:44:31;14.15;;;7.88;;
11123;SDS011;5616;42.692;23.312;2024-01-16T01:46:57;14.75;;;8.57;;
11123;SDS011;5616;42.692;23.312;2024-01-16T01:51:50;12.77;;;7.13;;
11123;SDS011;5616;42.692;23.312;2024-01-16T01:54:15;15.07;;;8.05;;
11123;SDS011;5616;42.692;23.312;2024-01-16T01:56:43;12.95;;;7.60;;
11123;SDS011;5616;42.692;23.312;2024-01-16T01:59:09;13.43;;;8.15;;
11123;SDS011;5616;42.692;23.312;2024-01-16T02:01:36;15.73;;;8.40;;
11123;SDS011;5616;42.692;23.312;2024-01-16T02:06:29;7.63;;;5.38;;
11123;SDS011;5616;42.692;23.312;2024-01-16T02:08:55;10.43;;;6.88;;
11123;SDS011;5616;42.692;23.312;2024-01-16T02:11:20;11.77;;;6.88;;
11123;SDS011;5616;42.692;23.312;2024-01-16T02:13:46;11.27;;;6.88;;
11123;SDS011;5616;42.692;23.312;2024-01-16T02:16:18;13.27;;;7.10;;
11123;SDS011;5616;42.692;23.312;2024-01-16T02:18:45;12.35;;;6.90;;
11123;SDS011;5616;42.692;23.312;2024-01-16T02:21:11;14.48;;;7.65;;
11123;SDS011;5616;42.692;23.312;2024-01-16T02:23:40;13.32;;;7.22;;
11123;SDS011;5616;42.692;23.312;2024-01-16T02:26:06;12.38;;;7.82;;
11123;SDS011;5616;42.692;23.312;2024-01-16T02:28:32;15.02;;;8.35;;
11123;SDS011;5616;42.692;23.312;2024-01-16T02:30:57;14.25;;;8.07;;
11123;SDS011;5616;42.692;23.312;2024-01-16T02:33:23;15.43;;;8.20;;
11123;SDS011;5616;42.692;23.312;2024-01-16T02:35:48;12.10;;;7.68;;
11123;SDS011;5616;42.692;23.312;2024-01-16T02:38:14;14.18;;;8.70;;
11123;SDS011;5616;42.692;23.312;2024-01-16T02:40:39;13.45;;;7.55;;
11123;SDS011;5616;42.692;23.312;2024-01-16T02:43:05;12.25;;;7.22;;
11123;SDS011;5616;42.692;23.312;2024-01-16T02:45:31;11.45;;;7.50;;
11123;SDS011;5616;42.692;23.312;2024-01-16T02:47:57;10.43;;;7.13;;
11123;SDS011;5616;42.692;23.312;2024-01-16T02:50:23;12.68;;;7.40;;
11123;SDS011;5616;42.692;23.312;2024-01-16T02:52:48;10.07;;;7.65;;
11123;SDS011;5616;42.692;23.312;2024-01-16T02:55:14;13.45;;;7.93;;
11123;SDS011;5616;42.692;23.312;2024-01-16T02:57:39;12.50;;;7.43;;
11123;SDS011;5616;42.692;23.312;2024-01-16T03:00:05;11.15;;;7.35;;
11123;SDS011;5616;42.692;23.312;2024-01-16T03:02:33;11.15;;;6.88;;
11123;SDS011;5616;42.692;23.312;2024-01-16T03:04:58;10.63;;;6.10;;
11123;SDS011;5616;42.692;23.312;2024-01-16T03:07:24;11.77;;;7.88;;
11123;SDS011;5616;42.692;23.312;2024-01-16T03:09:49;12.85;;;7.82;;
11123;SDS011;5616;42.692;23.312;2024-01-16T03:12:15;7.53;;;5.03;;
11123;SDS011;5616;42.692;23.312;2024-01-16T03:14:40;3.92;;;3.45;;
11123;SDS011;5616;42.692;23.312;2024-01-16T03:17:06;2.63;;;2.42;;
11123;SDS011;5616;42.692;23.312;2024-01-16T03:19:32;3.30;;;2.88;;
11123;SDS011;5616;42.692;23.312;2024-01-16T03:21:57;2.85;;;2.50;;
11123;SDS011;5616;42.692;23.312;2024-01-16T03:24:23;3.97;;;2.97;;
11123;SDS011;5616;42.692;23.312;2024-01-16T03:26:49;3.72;;;3.42;;
11123;SDS011;5616;42.692;23.312;2024-01-16T03:29:14;4.15;;;3.60;;
11123;SDS011;5616;42.692;23.312;2024-01-16T03:31:40;3.65;;;3.35;;
11123;SDS011;5616;42.692;23.312;2024-01-16T03:34:05;3.67;;;3.38;;
11123;SDS011;5616;42.692;23.312;2024-01-16T03:36:33;3.75;;;3.22;;
11123;SDS011;5616;42.692;23.312;2024-01-16T03:38:59;4.20;;;3.33;;
11123;SDS011;5616;42.692;23.312;2024-01-16T03:41:24;3.70;;;3.40;;
11123;SDS011;5616;42.692;23.312;2024-01-16T03:43:50;3.42;;;3.13;;
11123;SDS011;5616;42.692;23.312;2024-01-16T03:46:15;3.28;;;2.97;;
11123;SDS011;5616;42.692;23.312;2024-01-16T03:48:42;3.63;;;3.22;;
11123;SDS011;5616;42.692;23.312;2024-01-16T03:51:07;3.10;;;2.90;;
11123;SDS011;5616;42.692;23.312;2024-01-16T03:53:34;6.53;;;3.40;;
11123;SDS011;5616;42.692;23.312;2024-01-16T03:55:59;3.67;;;3.40;;
11123;SDS011;5616;42.692;23.312;2024-01-16T03:58:25;3.05;;;2.85;;
11123;SDS011;5616;42.692;23.312;2024-01-16T04:00:50;3.15;;;2.85;;
11123;SDS011;5616;42.692;23.312;2024-01-16T04:03:16;2.78;;;2.58;;
11123;SDS011;5616;42.692;23.312;2024-01-16T04:05:42;2.80;;;2.60;;
11123;SDS011;5616;42.692;23.312;2024-01-16T04:08:07;2.53;;;2.33;;
11123;SDS011;5616;42.692;23.312;2024-01-16T04:10:33;2.92;;;2.63;;
11123;SDS011;5616;42.692;23.312;2024-01-16T04:13:01;3.03;;;2.75;;
11123;SDS011;5616;42.692;23.312;2024-01-16T04:15:27;2.50;;;2.33;;
11123;SDS011;5616;42.692;23.312;2024-01-16T04:17:53;2.97;;;2.75;;
11123;SDS011;5616;42.692;23.312;2024-01-16T04:20:19;2.60;;;2.20;;
11123;SDS011;5616;42.692;23.312;2024-01-16T04:22:45;2.50;;;2.33;;
11123;SDS011;5616;42.692;23.312;2024-01-16T04:25:10;1.92;;;1.83;;
11123;SDS011;5616;42.692;23.312;2024-01-16T04:27:36;1.73;;;1.63;;
11123;SDS011;5616;42.692;23.312;2024-01-16T04:30:02;2.58;;;2.20;;
11123;SDS011;5616;42.692;23.312;2024-01-16T04:32:28;1.52;;;1.42;;
11123;SDS011;5616;42.692;23.312;2024-01-16T04:34:53;5.10;;;1.77;;
11123;SDS011;5616;42.692;23.312;2024-01-16T04:37:19;2.25;;;1.85;;
11123;SDS011;5616;42.692;23.312;2024-01-16T04:39:44;1.67;;;1.58;;
11123;SDS011;5616;42.692;23.312;2024-01-16T04:42:10;2.00;;;1.90;;
11123;SDS011;5616;42.692;23.312;2024-01-16T04:44:36;2.00;;;1.90;;
11123;SDS011;5616;42.692;23.312;2024-01-16T04:47:02;1.70;;;1.60;;
11123;SDS011;5616;42.692;23.312;2024-01-16T04:49:28;1.52;;;1.42;;
11123;SDS011;5616;42.692;23.312;2024-01-16T04:51:53;1.67;;;1.58;;
11123;SDS011;5616;42.692;23.312;2024-01-16T04:54:19;1.75;;;1.65;;
11123;SDS011;5616;42.692;23.312;2024-01-16T04:56:44;1.83;;;1.70;;
11123;SDS011;5616;42.692;23.312;2024-01-16T04:59:09;1.95;;;1.85;;
11123;SDS011;5616;42.692;23.312;2024-01-16T05:01:35;1.80;;;1.70;;
11123;SDS011;5616;42.692;23.312;2024-01-16T05:04:00;1.52;;;1.42;;
11123;SDS011;5616;42.692;23.312;2024-01-16T05:06:26;1.77;;;1.67;;
11123;SDS011;5616;42.692;23.312;2024-01-16T05:08:51;1.65;;;1.55;;
11123;SDS011;5616;42.692;23.312;2024-01-16T05:11:18;1.38;;;1.35;;
11123;SDS011;5616;42.692;23.312;2024-01-16T05:13:43;1.90;;;1.80;;
11123;SDS011;5616;42.692;23.312;2024-01-16T05:16:09;1.10;;;1.10;;
11123;SDS011;5616;42.692;23.312;2024-01-16T05:18:34;1.52;;;1.42;;
11123;SDS011;5616;42.692;23.312;2024-01-16T05:21:00;1.58;;;1.48;;
11123;SDS011;5616;42.692;23.312;2024-01-16T05:23:27;2.03;;;1.92;;
11123;SDS011;5616;42.692;23.312;2024-01-16T05:25:53;1.58;;;1.48;;
11123;SDS011;5616;42.692;23.312;2024-01-16T05:28:18;1.70;;;1.60;;
11123;SDS011;5616;42.692;23.312;2024-01-16T05:30:44;2.13;;;1.85;;
11123;SDS011;5616;42.692;23.312;2024-01-16T05:33:09;1.80;;;1.70;;
11123;SDS011;5616;42.692;23.312;2024-01-16T05:35:34;1.95;;;1.42;;
11123;SDS011;5616;42.692;23.312;2024-01-16T05:38:00;2.25;;;1.88;;
11123;SDS011;5616;42.692;23.312;2024-01-16T05:40:25;2.05;;;1.95;;
11123;SDS011;5616;42.692;23.312;2024-01-16T05:42:51;1.70;;;1.60;;
11123;SDS011;5616;42.692;23.312;2024-01-16T05:45:17;1.63;;;1.52;;
11123;SDS011;5616;42.692;23.312;2024-01-16T05:47:42;1.83;;;1.73;;
11123;SDS011;5616;42.692;23.312;2024-01-16T05:50:08;1.30;;;1.20;;
11123;SDS011;5616;42.692;23.312;2024-01-16T05:52:34;1.45;;;1.35;;
11123;SDS011;5616;42.692;23.312;2024-01-16T05:55:00;1.17;;;1.17;;
11123;SDS011;5616;42.692;23.312;2024-01-16T05:57:29;1.20;;;1.20;;
11123;SDS011;5616;42.692;23.312;2024-01-16T05:59:58;1.50;;;1.40;;
11123;SDS011;5616;42.692;23.312;2024-01-16T06:02:27;1.30;;;1.20;;
11123;SDS011;5616;42.692;23.312;2024-01-16T06:04:53;1.38;;;1.38;;
11123;SDS011;5616;42.692;23.312;2024-01-16T06:07:18;1.60;;;1.50;;
11123;SDS011;5616;42.692;23.312;2024-01-16T06:09:44;1.67;;;1.55;;
11123;SDS011;5616;42.692;23.312;2024-01-16T06:12:09;2.28;;;2.17;;
11123;SDS011;5616;42.692;23.312;2024-01-16T06:14:37;1.40;;;1.40;;
11123;SDS011;5616;42.692;23.312;2024-01-16T06:17:03;1.58;;;1.48;;
11123;SDS011;5616;42.692;23.312;2024-01-16T06:19:30;1.83;;;1.73;;
11123;SDS011;5616;42.692;23.312;2024-01-16T06:21:56;1.55;;;1.42;;
11123;SDS011;5616;42.692;23.312;2024-01-16T06:24:22;1.80;;;1.60;;
11123;SDS011;5616;42.692;23.312;2024-01-16T06:26:47;1.60;;;1.50;;
11123;SDS011;5616;42.692;23.312;2024-01-16T06:29:12;2.13;;;2.03;;
11123;SDS011;5616;42.692;23.312;2024-01-16T06:31:38;1.42;;;1.33;;
11123;SDS011;5616;42.692;23.312;2024-01-16T06:34:03;1.30;;;1.30;;
11123;SDS011;5616;42.692;23.312;2024-01-16T06:36:29;1.00;;;1.00;;
11123;SDS011;5616;42.692;23.312;2024-01-16T06:38:54;1.20;;;1.20;;
11123;SDS011;5616;42.692;23.312;2024-01-16T06:41:20;1.45;;;1.45;;
11123;SDS011;5616;42.692;23.312;2024-01-16T06:43:46;2.00;;;1.85;;
11123;SDS011;5616;42.692;23.312;2024-01-16T06:46:11;1.63;;;1.52;;
11123;SDS011;5616;42.692;23.312;2024-01-16T06:48:37;1.50;;;1.40;;
11123;SDS011;5616;42.692;23.312;2024-01-16T06:51:03;2.30;;;2.20;;
11123;SDS011;5616;42.692;23.312;2024-01-16T06:53:29;1.48;;;1.38;;
11123;SDS011;5616;42.692;23.312;2024-01-16T06:55:55;1.58;;;1.48;;
11123;SDS011;5616;42.692;23.312;2024-01-16T06:58:21;1.63;;;1.52;;
11123;SDS011;5616;42.692;23.312;2024-01-16T07:00:46;1.63;;;1.50;;
11123;SDS011;5616;42.692;23.312;2024-01-16T07:03:12;1.77;;;1.65;;
11123;SDS011;5616;42.692;23.312;2024-01-16T07:05:38;1.45;;;1.35;;
11123;SDS011;5616;42.692;23.312;2024-01-16T07:08:09;1.58;;;1.40;;
11123;SDS011;5616;42.692;23.312;2024-01-16T07:10:35;1.85;;;1.75;;
11123;SDS011;5616;42.692;23.312;2024-01-16T07:13:01;1.80;;;1.70;;
11123;SDS011;5616;42.692;23.312;2024-01-16T07:15:27;1.95;;;1.83;;
11123;SDS011;5616;42.692;23.312;2024-01-16T07:17:53;3.30;;;2.55;;
11123;SDS011;5616;42.692;23.312;2024-01-16T07:20:18;1.98;;;1.83;;
11123;SDS011;5616;42.692;23.312;2024-01-16T07:22:44;2.10;;;1.90;;
11123;SDS011;5616;42.692;23.312;2024-01-16T07:25:10;1.83;;;1.73;;
11123;SDS011;5616;42.692;23.312;2024-01-16T07:27:36;1.70;;;1.60;;
11123;SDS011;5616;42.692;23.312;2024-01-16T07:30:03;2.70;;;1.90;;
11123;SDS011;5616;42.692;23.312;2024-01-16T07:32:29;4.57;;;1.95;;
11123;SDS011;5616;42.692;23.312;2024-01-16T07:34:55;2.05;;;1.67;;
11123;SDS011;5616;42.692;23.312;2024-01-16T07:37:20;1.33;;;1.23;;
11123;SDS011;5616;42.692;23.312;2024-01-16T07:39:46;1.77;;;1.67;;
11123;SDS011;5616;42.692;23.312;2024-01-16T07:42:12;1.40;;;1.30;;
11123;SDS011;5616;42.692;23.312;2024-01-16T07:44:37;1.65;;;1.55;;
11123;SDS011;5616;42.692;23.312;2024-01-16T07:47:03;2.47;;;1.88;;
11123;SDS011;5616;42.692;23.312;2024-01-16T07:49:28;2.03;;;1.80;;
11123;SDS011;5616;42.692;23.312;2024-01-16T07:51:54;2.10;;;1.55;;
11123;SDS011;5616;42.692;23.312;2024-01-16T07:54:20;1.73;;;1.50;;
11123;SDS011;5616;42.692;23.312;2024-01-16T07:56:45;2.22;;;1.63;;
11123;SDS011;5616;42.692;23.312;2024-01-16T07:59:11;1.45;;;1.35;;
11123;SDS011;5616;42.692;23.312;2024-01-16T08:01:36;1.80;;;1.70;;
11123;SDS011;5616;42.692;23.312;2024-01-16T08:04:02;2.20;;;2.00;;
11123;SDS011;5616;42.692;23.312;2024-01-16T08:06:29;1.50;;;1.40;;
11123;SDS011;5616;42.692;23.312;2024-01-16T08:08:54;2.75;;;2.17;;
11123;SDS011;5616;42.692;23.312;2024-01-16T08:11:20;2.78;;;2.15;;
11123;SDS011;5616;42.692;23.312;2024-01-16T08:13:45;5.47;;;4.03;;
11123;SDS011;5616;42.692;23.312;2024-01-16T08:16:11;4.15;;;3.47;;
11123;SDS011;5616;42.692;23.312;2024-01-16T08:18:36;4.13;;;2.38;;
11123;SDS011;5616;42.692;23.312;2024-01-16T08:21:02;3.78;;;2.60;;
11123;SDS011;5616;42.692;23.312;2024-01-16T08:23:27;2.60;;;2.40;;
11123;SDS011;5616;42.692;23.312;2024-01-16T08:25:53;3.90;;;2.42;;
11123;SDS011;5616;42.692;23.312;2024-01-16T08:28:18;2.00;;;1.90;;
11123;SDS011;5616;42.692;23.312;2024-01-16T08:30:44;2.58;;;1.70;;
11123;SDS011;5616;42.692;23.312;2024-01-16T08:33:10;2.42;;;2.05;;
11123;SDS011;5616;42.692;23.312;2024-01-16T08:35:37;1.98;;;1.73;;
11123;SDS011;5616;42.692;23.312;2024-01-16T08:38:02;2.17;;;2.00;;
11123;SDS011;5616;42.692;23.312;2024-01-16T08:40:28;2.33;;;1.60;;
11123;SDS011;5616;42.692;23.312;2024-01-16T08:42:53;2.50;;;2.30;;
11123;SDS011;5616;42.692;23.312;2024-01-16T08:45:20;1.83;;;1.73;;
11123;SDS011;5616;42.692;23.312;2024-01-16T08:47:46;2.40;;;2.22;;
11123;SDS011;5616;42.692;23.312;2024-01-16T08:50:12;3.22;;;2.00;;
11123;SDS011;5616;42.692;23.312;2024-01-16T08:52:37;2.10;;;1.88;;
11123;SDS011;5616;42.692;23.312;2024-01-16T08:55:03;1.83;;;1.65;;
11123;SDS011;5616;42.692;23.312;2024-01-16T08:57:29;2.42;;;1.70;;
11123;SDS011;5616;42.692;23.312;2024-01-16T08:59:55;2.42;;;1.90;;
11123;SDS011;5616;42.692;23.312;2024-01-16T09:02:20;2.42;;;1.55;;
11123;SDS011;5616;42.692;23.312;2024-01-16T09:04:46;2.28;;;1.50;;
11123;SDS011;5616;42.692;23.312;2024-01-16T09:07:15;2.10;;;1.90;;
11123;SDS011;5616;42.692;23.312;2024-01-16T09:09:41;1.95;;;1.85;;
11123;SDS011;5616;42.692;23.312;2024-01-16T09:12:08;2.13;;;1.92;;
11123;SDS011;5616;42.692;23.312;2024-01-16T09:14:34;1.77;;;1.42;;
11123;SDS011;5616;42.692;23.312;2024-01-16T09:16:59;1.75;;;1.60;;
11123;SDS011;5616;42.692;23.312;2024-01-16T09:19:25;2.67;;;1.83;;
11123;SDS011;5616;42.692;23.312;2024-01-16T09:21:50;1.85;;;1.75;;
11123;SDS011;5616;42.692;23.312;2024-01-16T09:24:16;4.75;;;1.75;;
11123;SDS011;5616;42.692;23.312;2024-01-16T09:26:41;1.67;;;1.58;;
11123;SDS011;5616;42.692;23.312;2024-01-16T09:29:07;2.33;;;1.80;;
11123;SDS011;5616;42.692;23.312;2024-01-16T09:31:34;2.97;;;1.58;;
11123;SDS011;5616;42.692;23.312;2024-01-16T09:34:01;1.98;;;1.85;;
11123;SDS011;5616;42.692;23.312;2024-01-16T09:36:27;1.95;;;1.85;;
11123;SDS011;5616;42.692;23.312;2024-01-16T09:38:52;2.60;;;1.85;;
11123;SDS011;5616;42.692;23.312;2024-01-16T09:41:18;1.98;;;1.88;;
11123;SDS011;5616;42.692;23.312;2024-01-16T09:43:44;1.70;;;1.60;;
11123;SDS011;5616;42.692;23.312;2024-01-16T09:46:11;1.60;;;1.50;;
11123;SDS011;5616;42.692;23.312;2024-01-16T09:48:37;6.22;;;1.50;;
11123;SDS011;5616;42.692;23.312;2024-01-16T09:51:03;3.28;;;1.55;;
11123;SDS011;5616;42.692;23.312;2024-01-16T09:53:29;4.65;;;1.67;;
11123;SDS011;5616;42.692;23.312;2024-01-16T09:55:57;2.00;;;1.70;;
11123;SDS011;5616;42.692;23.312;2024-01-16T09:58:27;1.63;;;1.52;;
11123;SDS011;5616;42.692;23.312;2024-01-16T10:00:53;2.92;;;1.92;;
11123;SDS011;5616;42.692;23.312;2024-01-16T10:03:19;2.50;;;1.70;;
11123;SDS011;5616;42.692;23.312;2024-01-16T10:05:45;2.92;;;1.67;;
11123;SDS011;5616;42.692;23.312;2024-01-16T10:08:13;5.13;;;2.15;;
11123;SDS011;5616;42.692;23.312;2024-01-16T10:10:38;2.38;;;2.15;;
11123;SDS011;5616;42.692;23.312;2024-01-16T10:13:05;4.03;;;2.13;;
11123;SDS011;5616;42.692;23.312;2024-01-16T10:15:31;3.22;;;2.17;;
11123;SDS011;5616;42.692;23.312;2024-01-16T10:17:56;2.65;;;1.52;;
11123;SDS011;5616;42.692;23.312;2024-01-16T10:20:33;2.60;;;2.40;;
11123;SDS011;5616;42.692;23.312;2024-01-16T10:23:00;2.67;;;2.15;;
11123;SDS011;5616;42.692;23.312;2024-01-16T10:25:26;3.75;;;2.83;;
11123;SDS011;5616;42.692;23.312;2024-01-16T10:28:02;2.00;;;1.65;;
11123;SDS011;5616;42.692;23.312;2024-01-16T10:30:30;1.38;;;1.27;;
11123;SDS011;5616;42.692;23.312;2024-01-16T10:32:55;1.80;;;1.65;;
11123;SDS011;5616;42.692;23.312;2024-01-16T10:35:37;2.95;;;2.42;;
11123;SDS011;5616;42.692;23.312;2024-01-16T10:38:03;3.25;;;2.25;;
11123;SDS011;5616;42.692;23.312;2024-01-16T10:40:28;3.25;;;1.90;;
11123;SDS011;5616;42.692;23.312;2024-01-16T10:43:02;2.10;;;1.92;;
11123;SDS011;5616;42.692;23.312;2024-01-16T10:45:29;2.10;;;1.92;;
11123;SDS011;5616;42.692;23.312;2024-01-16T10:48:12;2.40;;;2.20;;
11123;SDS011;5616;42.692;23.312;2024-01-16T10:50:38;1.58;;;1.48;;
11123;SDS011;5616;42.692;23.312;2024-01-16T10:53:04;1.92;;;1.73;;
11123;SDS011;5616;42.692;23.312;2024-01-16T10:55:31;2.38;;;2.03;;
11123;SDS011;5616;42.692;23.312;2024-01-16T10:58:05;3.20;;;2.92;;
11123;SDS011;5616;42.692;23.312;2024-01-16T11:00:33;2.22;;;2.03;;
11123;SDS011;5616;42.692;23.312;2024-01-16T11:03:05;1.60;;;1.50;;
11123;SDS011;5616;42.692;23.312;2024-01-16T11:05:32;1.67;;;1.60;;
11123;SDS011;5616;42.692;23.312;2024-01-16T11:07:59;3.58;;;2.65;;
11123;SDS011;5616;42.692;23.312;2024-01-16T11:10:28;3.90;;;2.25;;
11123;SDS011;5616;42.692;23.312;2024-01-16T11:12:57;4.10;;;1.52;;
11123;SDS011;5616;42.692;23.312;2024-01-16T11:15:25;1.85;;;1.75;;
11123;SDS011;5616;42.692;23.312;2024-01-16T11:17:53;1.85;;;1.73;;
11123;SDS011;5616;42.692;23.312;2024-01-16T11:20:25;1.92;;;1.83;;
11123;SDS011;5616;42.692;23.312;2024-01-16T11:22:52;2.92;;;1.85;;
11123;SDS011;5616;42.692;23.312;2024-01-16T11:25:30;1.80;;;1.70;;
11123;SDS011;5616;42.692;23.312;2024-01-16T11:27:57;2.47;;;1.90;;
11123;SDS011;5616;42.692;23.312;2024-01-16T11:30:33;1.80;;;1.65;;
11123;SDS011;5616;42.692;23.312;2024-01-16T11:32:58;1.83;;;1.73;;
11123;SDS011;5616;42.692;23.312;2024-01-16T11:35:34;2.22;;;2.05;;
11123;SDS011;5616;42.692;23.312;2024-01-16T11:38:14;2.35;;;2.15;;
11123;SDS011;5616;42.692;23.312;2024-01-16T11:40:44;4.72;;;2.67;;
11123;SDS011;5616;42.692;23.312;2024-01-16T11:46:00;5.53;;;2.45;;
11123;SDS011;5616;42.692;23.312;2024-01-16T11:48:27;2.97;;;2.67;;
11123;SDS011;5616;42.692;23.312;2024-01-16T11:50:53;3.35;;;2.85;;
11123;SDS011;5616;42.692;23.312;2024-01-16T11:53:37;3.50;;;2.72;;
11123;SDS011;5616;42.692;23.312;2024-01-16T12:01:44;4.15;;;1.95;;
11123;SDS011;5616;42.692;23.312;2024-01-16T12:04:11;2.28;;;2.08;;
11123;SDS011;5616;42.692;23.312;2024-01-16T12:06:37;1.80;;;1.65;;
11123;SDS011;5616;42.692;23.312;2024-01-16T12:14:10;3.33;;;2.03;;
11123;SDS011;5616;42.692;23.312;2024-01-16T12:21:32;2.75;;;2.55;;
11123;SDS011;5616;42.692;23.312;2024-01-16T12:24:05;2.70;;;2.50;;
11123;SDS011;5616;42.692;23.312;2024-01-16T12:26:31;4.32;;;2.67;;
11123;SDS011;5616;42.692;23.312;2024-01-16T12:28:59;3.28;;;2.63;;
11123;SDS011;5616;42.692;23.312;2024-01-16T12:31:25;3.80;;;3.30;;
11123;SDS011;5616;42.692;23.312;2024-01-16T12:33:52;3.20;;;2.30;;
11123;SDS011;5616;42.692;23.312;2024-01-16T12:36:17;2.85;;;2.53;;
11123;SDS011;5616;42.692;23.312;2024-01-16T12:38:43;4.97;;;2.80;;
11123;SDS011;5616;42.692;23.312;2024-01-16T12:41:09;4.15;;;2.50;;
11123;SDS011;5616;42.692;23.312;2024-01-16T12:43:36;3.22;;;2.20;;
11123;SDS011;5616;42.692;23.312;2024-01-16T12:46:02;4.43;;;2.28;;
11123;SDS011;5616;42.692;23.312;2024-01-16T12:48:28;4.20;;;2.80;;
11123;SDS011;5616;42.692;23.312;2024-01-16T12:51:03;2.60;;;2.25;;
11123;SDS011;5616;42.692;23.312;2024-01-16T12:53:29;2.25;;;2.05;;
11123;SDS011;5616;42.692;23.312;2024-01-16T12:56:00;4.72;;;1.92;;
11123;SDS011;5616;42.692;23.312;2024-01-16T12:58:34;2.85;;;2.00;;
11123;SDS011;5616;42.692;23.312;2024-01-16T13:03:47;4.32;;;2.10;;
11123;SDS011;5616;42.692;23.312;2024-01-16T13:08:44;2.28;;;2.08;;
11123;SDS011;5616;42.692;23.312;2024-01-16T13:11:09;2.35;;;1.90;;
11123;SDS011;5616;42.692;23.312;2024-01-16T13:13:35;3.22;;;2.10;;
11123;SDS011;5616;42.692;23.312;2024-01-16T13:16:02;2.50;;;2.22;;
11123;SDS011;5616;42.692;23.312;2024-01-16T13:18:33;1.73;;;1.65;;
11123;SDS011;5616;42.692;23.312;2024-01-16T13:20:59;2.83;;;2.63;;
11123;SDS011;5616;42.692;23.312;2024-01-16T13:23:26;2.83;;;1.85;;
11123;SDS011;5616;42.692;23.312;2024-01-16T13:25:52;4.35;;;2.80;;
11123;SDS011;5616;42.692;23.312;2024-01-16T13:28:20;2.28;;;1.58;;
11123;SDS011;5616;42.692;23.312;2024-01-16T13:30:47;1.75;;;1.30;;
11123;SDS011;5616;42.692;23.312;2024-01-16T13:33:14;1.77;;;1.67;;
11123;SDS011;5616;42.692;23.312;2024-01-16T13:35:41;2.58;;;2.33;;
11123;SDS011;5616;42.692;23.312;2024-01-16T13:38:08;2.63;;;2.42;;
11123;SDS011;5616;42.692;23.312;2024-01-16T13:40:37;4.32;;;2.00;;
11123;SDS011;5616;42.692;23.312;2024-01-16T13:43:03;3.63;;;1.88;;
11123;SDS011;5616;42.692;23.312;2024-01-16T13:45:29;2.85;;;2.35;;
11123;SDS011;5616;42.692;23.312;2024-01-16T13:47:55;2.10;;;1.95;;
11123;SDS011;5616;42.692;23.312;2024-01-16T13:50:21;4.25;;;2.30;;
11123;SDS011;5616;42.692;23.312;2024-01-16T13:52:47;2.83;;;2.05;;
11123;SDS011;5616;42.692;23.312;2024-01-16T13:55:12;2.30;;;2.10;;
11123;SDS011;5616;42.692;23.312;2024-01-16T13:57:38;1.73;;;1.63;;
11123;SDS011;5616;42.692;23.312;2024-01-16T14:00:04;2.88;;;1.90;;
11123;SDS011;5616;42.692;23.312;2024-01-16T14:02:32;2.20;;;2.00;;
11123;SDS011;5616;42.692;23.312;2024-01-16T14:05:00;2.22;;;2.03;;
11123;SDS011;5616;42.692;23.312;2024-01-16T14:07:25;2.55;;;2.35;;
11123;SDS011;5616;42.692;23.312;2024-01-16T14:09:51;2.78;;;2.58;;
11123;SDS011;5616;42.692;23.312;2024-01-16T14:12:16;2.55;;;2.22;;
11123;SDS011;5616;42.692;23.312;2024-01-16T14:14:44;3.40;;;2.25;;
11123;SDS011;5616;42.692;23.312;2024-01-16T14:17:10;2.58;;;2.30;;
11123;SDS011;5616;42.692;23.312;2024-01-16T14:19:36;2.78;;;2.58;;
11123;SDS011;5616;42.692;23.312;2024-01-16T14:22:03;6.45;;;3.38;;
11123;SDS011;5616;42.692;23.312;2024-01-16T14:24:29;2.40;;;2.20;;
11123;SDS011;5616;42.692;23.312;2024-01-16T14:26:54;3.30;;;2.08;;
11123;SDS011;5616;42.692;23.312;2024-01-16T14:29:22;3.10;;;2.90;;
11123;SDS011;5616;42.692;23.312;2024-01-16T14:31:48;5.47;;;2.83;;
11123;SDS011;5616;42.692;23.312;2024-01-16T14:34:16;2.42;;;2.25;;
11123;SDS011;5616;42.692;23.312;2024-01-16T14:36:42;2.50;;;2.30;;
11123;SDS011;5616;42.692;23.312;2024-01-16T14:39:08;2.28;;;2.08;;
11123;SDS011;5616;42.692;23.312;2024-01-16T14:41:41;3.72;;;2.10;;
11123;SDS011;5616;42.692;23.312;2024-01-16T14:44:08;2.65;;;2.45;;
11123;SDS011;5616;42.692;23.312;2024-01-16T14:46:37;2.67;;;2.30;;
11123;SDS011;5616;42.692;23.312;2024-01-16T14:49:03;4.63;;;2.40;;
11123;SDS011;5616;42.692;23.312;2024-01-16T14:51:28;4.30;;;2.55;;
11123;SDS011;5616;42.692;23.312;2024-01-16T14:53:54;4.30;;;2.75;;
11123;SDS011;5616;42.692;23.312;2024-01-16T14:56:21;4.07;;;2.60;;
11123;SDS011;5616;42.692;23.312;2024-01-16T14:58:46;3.75;;;2.80;;
11123;SDS011;5616;42.692;23.312;2024-01-16T15:01:11;2.70;;;2.50;;
11123;SDS011;5616;42.692;23.312;2024-01-16T15:03:37;3.38;;;2.78;;
11123;SDS011;5616;42.692;23.312;2024-01-16T15:06:03;3.17;;;2.88;;
11123;SDS011;5616;42.692;23.312;2024-01-16T15:08:30;3.00;;;2.65;;